Time;durP1;ratioP1;P1;durP2;ratioP2;P2;SDS_P1;SDS_P2;PMS_P1;PMS_P2;Temp;Humidity;BMP_temperature;BMP_pressure;BME280_temperature;BME280_humidity;BME280_pressure;Samples;Min_cycle;Max_cycle;Signal;HPM_P1;HPM_P2
2022/08/03 00:01:06;;;;;;;;;;;22.90;85.10;;;;;;4961012;28;19934;-77
2022/08/03 00:03:35;;;;;;;;;;;22.90;85.20;;;;;;4968741;28;20005;-77
2022/08/03 00:06:02;;;;;;;;;;;22.90;85.30;;;;;;4969666;28;19961;-75
2022/08/03 00:08:28;;;;;;;;;;;22.80;85.80;;;;;;4960263;28;20409;-76
2022/08/03 00:10:55;;;;;;;;;;;;;;;;;;4964294;28;19930;-77
2022/08/03 00:13:22;;;;;;;;;;;22.80;84.80;;;;;;4969425;28;19930;-77
2022/08/03 00:15:49;;;;;;;;;;;22.80;85.30;;;;;;4973766;28;19992;-77
2022/08/03 00:18:16;;;;;;;;;;;22.70;85.30;;;;;;4967047;28;20266;-77
2022/08/03 00:20:44;;;;;;;;;;;22.70;85.30;;;;;;4963951;28;20324;-75
2022/08/03 00:23:11;;;;;;;;;;;22.70;85.30;;;;;;4966576;28;19926;-78
2022/08/03 00:25:38;;;;;;;;;;;22.60;85.20;;;;;;4963210;28;19927;-76
2022/08/03 00:28:05;;;;;;;;;;;22.60;85.20;;;;;;4967960;28;19942;-78
2022/08/03 00:30:32;;;;;;;;;;;22.60;85.20;;;;;;4966672;28;19965;-78
2022/08/03 00:32:59;;;;;;;;;;;22.50;85.20;;;;;;4963624;28;20393;-77
2022/08/03 00:35:26;;;;;;;;;;;22.50;85.20;;;;;;4963458;28;19933;-78
2022/08/03 00:37:54;;;;;;;;;;;22.50;85.30;;;;;;4972948;28;19926;-77
2022/08/03 00:40:21;;;;;;;;;;;22.40;85.20;;;;;;4966179;28;19965;-77
2022/08/03 00:42:49;;;;;;;;;;;22.40;85.30;;;;;;4964606;28;20381;-78
2022/08/03 00:45:16;;;;;;;;;;;22.40;85.30;;;;;;4967915;28;19934;-77
2022/08/03 00:47:43;;;;;;;;;;;22.40;85.40;;;;;;4967776;28;19934;-76
2022/08/03 00:50:10;;;;;;;;;;;22.40;85.50;;;;;;4961989;28;19933;-77
2022/08/03 00:52:37;;;;;;;;;;;22.30;85.40;;;;;;4967615;28;19930;-78
2022/08/03 00:55:06;;;;;;;;;;;22.30;85.40;;;;;;4967119;28;20429;-77
2022/08/03 00:57:33;;;;;;;;;;;22.30;85.40;;;;;;4969502;28;20181;-78
2022/08/03 01:00:00;;;;;;;;;;;22.20;85.40;;;;;;4960085;28;19926;-77
2022/08/03 01:02:27;;;;;;;;;;;;;;;;;;4968669;28;19926;-77
2022/08/03 01:04:54;;;;;;;;;;;22.20;84.90;;;;;;4965743;28;19985;-76
2022/08/03 01:07:26;;;;;;;;;;;22.20;85.60;;;;;;4968613;28;20022;-76
2022/08/03 01:09:58;;;;;;;;;;;22.10;85.60;;;;;;4963971;28;20017;-76
2022/08/03 01:12:30;;;;;;;;;;;22.10;85.60;;;;;;4971269;28;19976;-77
2022/08/03 01:15:00;;;;;;;;;;;22.10;85.50;;;;;;4967398;28;19926;-77
2022/08/03 01:17:31;;;;;;;;;;;22.00;85.50;;;;;;4961957;28;19962;-78
2022/08/03 01:20:01;;;;;;;;;;;22.00;85.50;;;;;;4958766;28;19938;-77
2022/08/03 01:22:49;;;;;;;;;;;22.00;85.60;;;;;;4966421;28;19926;-76
2022/08/03 01:25:22;;;;;;;;;;;22.00;85.70;;;;;;4959476;28;20017;-77
2022/08/03 01:27:57;;;;;;;;;;;21.90;85.60;;;;;;4963973;28;20453;-78
2022/08/03 01:30:27;;;;;;;;;;;21.90;85.70;;;;;;4964071;28;20116;-78
2022/08/03 01:32:56;;;;;;;;;;;21.90;85.70;;;;;;4972926;28;20866;-76
2022/08/03 01:35:26;;;;;;;;;;;21.90;85.80;;;;;;4968327;28;19926;-77
2022/08/03 01:37:58;;;;;;;;;;;21.80;85.80;;;;;;4964544;28;20022;-78
2022/08/03 01:40:25;;;;;;;;;;;21.80;85.90;;;;;;4963690;28;19965;-77
2022/08/03 01:42:54;;;;;;;;;;;21.70;85.90;;;;;;4966658;28;19926;-76
2022/08/03 01:45:21;;;;;;;;;;;21.70;85.90;;;;;;4962979;28;19934;-77
2022/08/03 01:47:50;;;;;;;;;;;21.70;85.90;;;;;;4963880;28;20320;-77
2022/08/03 01:50:19;;;;;;;;;;;21.70;85.90;;;;;;4965815;28;19932;-76
2022/08/03 01:52:46;;;;;;;;;;;21.60;85.90;;;;;;4953255;28;19930;-76
2022/08/03 01:55:13;;;;;;;;;;;21.60;85.90;;;;;;4965820;28;20045;-76
2022/08/03 01:57:43;;;;;;;;;;;21.60;85.90;;;;;;4966273;28;19930;-78
2022/08/03 02:00:13;;;;;;;;;;;21.50;85.80;;;;;;4946328;28;20008;-78
2022/08/03 02:02:43;;;;;;;;;;;21.50;85.90;;;;;;4963018;28;19926;-75
2022/08/03 02:05:13;;;;;;;;;;;21.50;85.90;;;;;;4963284;28;19989;-77
2022/08/03 02:07:40;;;;;;;;;;;21.50;85.90;;;;;;4965540;28;19926;-76
2022/08/03 02:10:09;;;;;;;;;;;21.50;86.00;;;;;;4962848;28;19977;-76
2022/08/03 02:12:37;;;;;;;;;;;21.50;86.10;;;;;;4961807;28;19930;-76
2022/08/03 02:15:04;;;;;;;;;;;21.40;86.10;;;;;;4967990;28;20371;-78
2022/08/03 02:17:33;;;;;;;;;;;21.40;85.50;;;;;;4964022;28;19977;-78
2022/08/03 02:20:00;;;;;;;;;;;21.40;86.10;;;;;;4962636;28;20020;-77
2022/08/03 02:22:29;;;;;;;;;;;21.30;86.00;;;;;;4965525;28;19926;-77
2022/08/03 02:24:57;;;;;;;;;;;21.30;86.10;;;;;;4966000;28;19930;-76
2022/08/03 02:27:25;;;;;;;;;;;21.30;86.10;;;;;;4964138;28;19930;-76
2022/08/03 02:29:53;;;;;;;;;;;21.30;86.20;;;;;;4966255;28;20335;-76
2022/08/03 02:32:21;;;;;;;;;;;21.30;86.10;;;;;;4967612;28;19934;-76
2022/08/03 02:34:48;;;;;;;;;;;;;;;;;;4965701;28;20024;-76
2022/08/03 02:37:18;;;;;;;;;;;21.20;85.40;;;;;;4966420;28;20360;-77
2022/08/03 02:39:46;;;;;;;;;;;21.20;86.00;;;;;;4967168;28;20043;-76
2022/08/03 02:42:15;;;;;;;;;;;21.10;85.30;;;;;;4969977;28;20001;-76
2022/08/03 02:44:46;;;;;;;;;;;21.10;86.00;;;;;;4966527;28;19941;-75
2022/08/03 02:47:14;;;;;;;;;;;21.10;86.00;;;;;;4959673;28;19926;-75
2022/08/03 02:49:41;;;;;;;;;;;21.10;86.10;;;;;;4969485;28;20029;-76
2022/08/03 02:52:09;;;;;;;;;;;21.10;86.20;;;;;;4968436;28;19934;-76
2022/08/03 02:54:38;;;;;;;;;;;21.00;86.00;;;;;;4969704;28;20629;-76
2022/08/03 02:57:06;;;;;;;;;;;21.00;86.00;;;;;;4967319;28;20452;-76
2022/08/03 02:59:34;;;;;;;;;;;21.00;86.00;;;;;;4967588;28;19926;-76
2022/08/03 03:02:02;;;;;;;;;;;21.00;86.00;;;;;;4953024;28;19950;-76
2022/08/03 03:04:30;;;;;;;;;;;20.90;86.00;;;;;;4967779;28;20381;-76
2022/08/03 03:06:57;;;;;;;;;;;20.90;86.00;;;;;;4967165;28;19934;-76
2022/08/03 03:09:24;;;;;;;;;;;20.90;86.00;;;;;;4970581;28;20474;-77
2022/08/03 03:11:51;;;;;;;;;;;20.90;86.10;;;;;;4968367;28;20281;-76
2022/08/03 03:14:20;;;;;;;;;;;20.80;86.20;;;;;;4970219;28;19946;-76
2022/08/03 03:16:48;;;;;;;;;;;20.80;86.20;;;;;;4967358;28;19954;-76
2022/08/03 03:19:15;;;;;;;;;;;20.80;86.30;;;;;;4963278;28;20020;-76
2022/08/03 03:21:43;;;;;;;;;;;20.80;86.30;;;;;;4968122;28;20020;-76
2022/08/03 03:24:10;;;;;;;;;;;20.70;86.20;;;;;;4968957;28;19993;-76
2022/08/03 03:26:37;;;;;;;;;;;20.70;86.30;;;;;;4963167;28;20017;-76
2022/08/03 03:29:04;;;;;;;;;;;20.70;86.50;;;;;;4966577;28;20300;-77
2022/08/03 03:31:32;;;;;;;;;;;20.70;86.50;;;;;;4966706;28;20005;-77
2022/08/03 03:33:59;;;;;;;;;;;20.60;86.40;;;;;;4971119;28;19926;-76
2022/08/03 03:36:26;;;;;;;;;;;;;;;;;;4966243;28;19962;-76
2022/08/03 03:38:53;;;;;;;;;;;20.60;85.90;;;;;;4966826;28;19926;-76
2022/08/03 03:41:20;;;;;;;;;;;20.60;86.40;;;;;;4968399;28;20364;-75
2022/08/03 03:43:48;;;;;;;;;;;20.50;86.40;;;;;;4965204;28;20361;-76
2022/08/03 03:46:15;;;;;;;;;;;20.50;86.50;;;;;;4968520;28;20300;-76
2022/08/03 03:48:44;;;;;;;;;;;20.50;86.30;;;;;;4958851;28;20013;-77
2022/08/03 03:51:11;;;;;;;;;;;20.50;86.50;;;;;;4966765;28;20346;-76
2022/08/03 03:53:38;;;;;;;;;;;20.40;85.80;;;;;;4961645;28;19926;-76
2022/08/03 03:56:04;;;;;;;;;;;20.40;86.30;;;;;;4943755;28;20056;-76
2022/08/03 03:58:32;;;;;;;;;;;20.40;86.40;;;;;;4967820;28;20365;-76
2022/08/03 04:00:59;;;;;;;;;;;20.40;86.30;;;;;;4967548;28;19969;-75
2022/08/03 04:03:26;;;;;;;;;;;20.40;86.30;;;;;;4959980;28;19934;-76
2022/08/03 04:13:54;;;;;;;;;;;20.30;86.80;;;;;;4992362;28;20113;-78
2022/08/03 04:16:23;;;;;;;;;;;20.30;86.90;;;;;;4983841;28;20455;-79
2022/08/03 04:18:53;;;;;;;;;;;20.30;86.90;;;;;;4989813;28;19975;-79
2022/08/03 04:21:23;;;;;;;;;;;20.30;86.90;;;;;;4988550;28;19977;-80
2022/08/03 04:23:53;;;;;;;;;;;20.20;86.80;;;;;;4986783;28;20467;-79
2022/08/03 04:26:21;;;;;;;;;;;20.20;86.90;;;;;;4987793;28;19933;-78
2022/08/03 04:28:49;;;;;;;;;;;20.20;86.80;;;;;;4987523;28;20020;-79
2022/08/03 04:31:16;;;;;;;;;;;20.10;86.80;;;;;;4988456;28;20357;-78
2022/08/03 04:33:44;;;;;;;;;;;20.10;86.90;;;;;;4986394;28;19930;-78
2022/08/03 04:36:14;;;;;;;;;;;20.10;86.80;;;;;;4987459;28;19977;-78
2022/08/03 04:38:46;;;;;;;;;;;20.10;87.00;;;;;;4972180;28;19976;-78
2022/08/03 04:41:14;;;;;;;;;;;20.10;87.00;;;;;;4989634;28;19930;-78
2022/08/03 04:43:40;;;;;;;;;;;20.00;87.00;;;;;;4983596;28;20060;-78
2022/08/03 04:46:08;;;;;;;;;;;20.00;87.10;;;;;;4968550;28;19926;-78
2022/08/03 04:48:35;;;;;;;;;;;20.00;87.00;;;;;;4979591;28;20020;-78
2022/08/03 04:51:03;;;;;;;;;;;20.00;87.00;;;;;;4982728;28;20033;-77
2022/08/03 04:53:30;;;;;;;;;;;20.00;87.20;;;;;;4986586;28;19934;-77
2022/08/03 04:56:05;;;;;;;;;;;20.00;87.30;;;;;;4974846;28;20020;-77
2022/08/03 04:58:32;;;;;;;;;;;20.00;87.30;;;;;;4967296;28;19926;-77
2022/08/03 05:00:59;;;;;;;;;;;19.90;87.40;;;;;;4987998;28;19965;-77
2022/08/03 05:03:26;;;;;;;;;;;19.90;87.40;;;;;;4987068;28;19942;-78
2022/08/03 05:05:53;;;;;;;;;;;19.90;88.20;;;;;;4979033;28;19981;-78
2022/08/03 05:08:20;;;;;;;;;;;19.90;87.40;;;;;;4975275;28;19926;-78
2022/08/03 05:10:47;;;;;;;;;;;19.80;87.50;;;;;;4981709;28;19965;-79
2022/08/03 05:13:15;;;;;;;;;;;19.80;87.50;;;;;;4984152;28;20377;-78
2022/08/03 05:15:42;;;;;;;;;;;19.80;87.50;;;;;;4982773;28;19925;-79
2022/08/03 05:18:09;;;;;;;;;;;19.80;87.40;;;;;;4978933;28;20138;-78
2022/08/03 05:20:36;;;;;;;;;;;19.80;87.60;;;;;;4990328;28;20298;-78
2022/08/03 05:23:03;;;;;;;;;;;19.80;87.50;;;;;;4981394;28;19977;-80
2022/08/03 05:25:30;;;;;;;;;;;19.80;87.50;;;;;;4984983;28;19930;-79
2022/08/03 05:27:56;;;;;;;;;;;19.70;87.30;;;;;;4978353;28;19957;-79
2022/08/03 05:30:25;;;;;;;;;;;19.70;86.40;;;;;;4986718;28;19933;-78
2022/08/03 05:32:52;;;;;;;;;;;19.60;87.30;;;;;;4985946;28;19926;-79
2022/08/03 05:35:19;;;;;;;;;;;19.50;88.20;;;;;;4985902;28;19930;-80
2022/08/03 05:37:45;;;;;;;;;;;19.40;88.50;;;;;;4983098;28;19996;-78
2022/08/03 05:40:13;;;;;;;;;;;19.30;88.90;;;;;;4981472;28;19973;-78
2022/08/03 05:42:40;;;;;;;;;;;19.30;89.20;;;;;;4987409;28;19937;-79
2022/08/03 05:45:13;;;;;;;;;;;19.30;89.30;;;;;;4983327;28;19961;-79
2022/08/03 05:47:43;;;;;;;;;;;19.30;89.60;;;;;;4986731;28;19934;-78
2022/08/03 05:50:10;;;;;;;;;;;19.30;89.80;;;;;;4983788;28;19933;-79
2022/08/03 05:52:37;;;;;;;;;;;19.30;90.00;;;;;;4972773;28;20412;-79
2022/08/03 05:55:04;;;;;;;;;;;19.30;90.00;;;;;;4989769;28;19934;-78
2022/08/03 05:57:31;;;;;;;;;;;19.30;90.00;;;;;;4983557;28;19996;-79
2022/08/03 05:59:58;;;;;;;;;;;19.30;90.00;;;;;;4982814;28;20016;-79
2022/08/03 06:02:25;;;;;;;;;;;19.30;90.10;;;;;;4988893;28;19980;-78
2022/08/03 06:04:53;;;;;;;;;;;19.40;90.20;;;;;;4984044;28;20277;-78
2022/08/03 06:07:20;;;;;;;;;;;19.40;90.20;;;;;;4989243;28;20061;-79
2022/08/03 06:09:49;;;;;;;;;;;19.50;90.20;;;;;;4977863;28;19980;-79
2022/08/03 06:12:15;;;;;;;;;;;19.50;90.20;;;;;;4974403;28;20011;-79
2022/08/03 06:14:42;;;;;;;;;;;19.50;90.10;;;;;;4983911;28;19993;-80
2022/08/03 06:17:09;;;;;;;;;;;19.50;90.10;;;;;;4973962;28;19934;-77
2022/08/03 06:19:36;;;;;;;;;;;19.50;90.20;;;;;;4993201;28;19930;-77
2022/08/03 06:22:04;;;;;;;;;;;19.60;90.30;;;;;;4977412;28;19942;-77
2022/08/03 06:24:31;;;;;;;;;;;19.60;90.30;;;;;;4982384;28;19932;-78
2022/08/03 06:26:58;;;;;;;;;;;19.60;90.30;;;;;;4987925;28;19988;-78
2022/08/03 06:29:25;;;;;;;;;;;19.60;90.30;;;;;;4990204;28;19926;-79
2022/08/03 06:31:52;;;;;;;;;;;19.70;90.30;;;;;;4989341;28;20407;-78
2022/08/03 06:34:19;;;;;;;;;;;19.70;90.40;;;;;;4987533;28;19934;-78
2022/08/03 06:36:47;;;;;;;;;;;19.70;90.30;;;;;;4992309;28;19930;-80
2022/08/03 06:39:16;;;;;;;;;;;19.80;90.40;;;;;;4983777;28;19973;-79
2022/08/03 06:41:43;;;;;;;;;;;19.80;90.30;;;;;;4972473;28;20285;-80
2022/08/03 06:44:09;;;;;;;;;;;19.80;90.30;;;;;;4968125;28;19941;-78
2022/08/03 06:46:36;;;;;;;;;;;19.80;90.30;;;;;;4982230;28;19937;-79
2022/08/03 06:49:03;;;;;;;;;;;19.80;90.30;;;;;;4986058;28;19933;-79
2022/08/03 06:51:30;;;;;;;;;;;19.80;90.40;;;;;;4967873;28;20360;-79
2022/08/03 06:53:57;;;;;;;;;;;19.80;90.70;;;;;;4982829;28;19926;-78
2022/08/03 06:56:25;;;;;;;;;;;19.80;90.40;;;;;;4985893;28;20089;-78
2022/08/03 06:58:52;;;;;;;;;;;20.00;91.00;;;;;;4981128;28;19926;-79
2022/08/03 07:01:19;;;;;;;;;;;20.20;92.00;;;;;;4984378;28;20036;-79
2022/08/03 07:03:46;;;;;;;;;;;20.30;92.10;;;;;;4983508;28;19981;-78
2022/08/03 07:06:13;;;;;;;;;;;20.30;91.80;;;;;;4990392;28;19932;-78
2022/08/03 07:08:39;;;;;;;;;;;20.20;91.70;;;;;;4985568;28;19930;-78
2022/08/03 07:11:06;;;;;;;;;;;20.20;91.60;;;;;;4992318;28;19981;-79
2022/08/03 07:13:34;;;;;;;;;;;20.20;91.50;;;;;;4988712;28;19926;-78
2022/08/03 07:16:01;;;;;;;;;;;20.20;91.40;;;;;;4990877;28;19933;-78
2022/08/03 07:18:28;;;;;;;;;;;20.20;91.40;;;;;;4989433;28;20364;-78
2022/08/03 07:20:55;;;;;;;;;;;20.20;91.40;;;;;;4992933;28;20013;-78
2022/08/03 07:23:22;;;;;;;;;;;20.20;91.30;;;;;;4985601;28;20215;-78
2022/08/03 07:25:49;;;;;;;;;;;20.20;91.30;;;;;;5000853;28;20017;-79
2022/08/03 07:28:16;;;;;;;;;;;20.30;91.30;;;;;;4988018;28;19989;-78
2022/08/03 07:30:44;;;;;;;;;;;20.30;91.30;;;;;;4989256;28;19972;-80
2022/08/03 07:33:11;;;;;;;;;;;20.30;91.20;;;;;;4988092;28;20040;-79
2022/08/03 07:35:38;;;;;;;;;;;20.30;91.20;;;;;;4997221;28;19925;-79
2022/08/03 07:38:05;;;;;;;;;;;20.30;91.20;;;;;;4984930;28;19988;-78
2022/08/03 07:40:31;;;;;;;;;;;20.30;91.30;;;;;;4989819;28;19925;-78
2022/08/03 07:42:58;;;;;;;;;;;20.40;91.30;;;;;;4972540;28;20479;-78
2022/08/03 07:45:25;;;;;;;;;;;20.40;91.20;;;;;;4986898;28;19925;-79
2022/08/03 07:47:53;;;;;;;;;;;20.40;91.20;;;;;;4989514;28;19933;-78
2022/08/03 07:50:20;;;;;;;;;;;20.40;91.20;;;;;;4989248;28;19932;-77
2022/08/03 07:52:51;;;;;;;;;;;20.40;91.20;;;;;;4988154;28;20369;-79
2022/08/03 07:55:19;;;;;;;;;;;20.50;91.20;;;;;;4990302;28;19926;-78
2022/08/03 07:57:46;;;;;;;;;;;20.50;91.20;;;;;;4987381;28;20009;-78
2022/08/03 08:00:14;;;;;;;;;;;20.50;91.10;;;;;;4969379;28;19976;-78
2022/08/03 08:02:41;;;;;;;;;;;20.50;91.10;;;;;;4981727;28;19932;-78
2022/08/03 08:05:10;;;;;;;;;;;20.50;91.10;;;;;;4985361;28;19929;-78
2022/08/03 08:07:37;;;;;;;;;;;20.50;91.10;;;;;;4988206;28;19980;-79
2022/08/03 08:10:05;;;;;;;;;;;20.50;91.10;;;;;;4990763;28;19932;-78
2022/08/03 08:12:31;;;;;;;;;;;20.60;91.10;;;;;;4982923;28;19929;-77
2022/08/03 08:14:58;;;;;;;;;;;20.60;91.00;;;;;;4993005;28;20459;-78
2022/08/03 08:17:25;;;;;;;;;;;20.60;91.00;;;;;;4983365;28;20017;-77
2022/08/03 08:19:52;;;;;;;;;;;20.60;91.00;;;;;;4992890;28;19964;-77
2022/08/03 08:22:20;;;;;;;;;;;20.60;91.00;;;;;;4983156;28;20066;-77
2022/08/03 08:24:48;;;;;;;;;;;20.60;90.90;;;;;;4982865;28;19933;-79
2022/08/03 08:27:15;;;;;;;;;;;20.60;90.90;;;;;;4990018;28;20008;-77
2022/08/03 08:29:41;;;;;;;;;;;20.60;90.90;;;;;;4990639;28;19957;-77
2022/08/03 08:32:10;;;;;;;;;;;20.60;90.90;;;;;;4983136;28;19975;-78
2022/08/03 08:34:36;;;;;;;;;;;20.60;90.90;;;;;;4988009;28;19933;-78
2022/08/03 08:37:03;;;;;;;;;;;20.60;90.90;;;;;;4988132;28;19933;-78
2022/08/03 08:39:32;;;;;;;;;;;20.70;90.90;;;;;;4989087;28;20153;-78
2022/08/03 08:41:58;;;;;;;;;;;20.70;90.90;;;;;;4983107;28;19934;-78
2022/08/03 08:44:25;;;;;;;;;;;20.70;90.90;;;;;;4989207;28;20307;-78
2022/08/03 08:46:53;;;;;;;;;;;20.70;90.90;;;;;;4986356;28;19930;-78
2022/08/03 08:49:23;;;;;;;;;;;20.70;90.90;;;;;;4981701;28;19926;-78
2022/08/03 08:51:50;;;;;;;;;;;20.70;90.90;;;;;;4984975;28;19937;-78
2022/08/03 08:54:19;;;;;;;;;;;20.80;91.00;;;;;;4990915;28;19972;-78
2022/08/03 08:56:47;;;;;;;;;;;20.80;90.90;;;;;;4984616;28;20381;-79
2022/08/03 08:59:14;;;;;;;;;;;20.80;90.90;;;;;;4989155;28;19926;-78
2022/08/03 09:01:41;;;;;;;;;;;20.80;91.00;;;;;;4975274;28;19969;-79
2022/08/03 09:04:08;;;;;;;;;;;20.80;90.90;;;;;;4990436;28;20427;-78
2022/08/03 09:06:35;;;;;;;;;;;20.90;90.90;;;;;;4982554;28;19934;-78
2022/08/03 09:09:02;;;;;;;;;;;20.90;90.90;;;;;;4987451;28;20297;-79
2022/08/03 09:11:29;;;;;;;;;;;20.90;90.90;;;;;;4987940;28;19930;-78
2022/08/03 09:13:58;;;;;;;;;;;20.90;90.90;;;;;;4988865;28;19980;-82
2022/08/03 09:16:25;;;;;;;;;;;20.90;90.80;;;;;;4971617;28;19926;-79
2022/08/03 09:18:53;;;;;;;;;;;20.90;90.80;;;;;;4986420;28;19929;-78
2022/08/03 09:21:21;;;;;;;;;;;20.90;90.80;;;;;;4986917;28;19930;-80
2022/08/03 09:23:49;;;;;;;;;;;20.90;90.80;;;;;;4982184;28;20050;-78
2022/08/03 09:26:23;;;;;;;;;;;21.00;90.80;;;;;;4984325;28;19992;-80
2022/08/03 09:28:58;;;;;;;;;;;21.00;90.80;;;;;;4987657;28;19929;-78
2022/08/03 09:31:31;;;;;;;;;;;21.00;90.80;;;;;;4982000;28;20352;-78
2022/08/03 09:34:01;;;;;;;;;;;21.00;90.80;;;;;;4972427;28;19932;-78
2022/08/03 09:36:34;;;;;;;;;;;21.00;90.80;;;;;;4986538;28;20337;-78
2022/08/03 09:39:04;;;;;;;;;;;21.00;90.80;;;;;;4982745;28;20084;-79
2022/08/03 09:41:31;;;;;;;;;;;21.10;90.80;;;;;;4985559;28;19926;-78
2022/08/03 09:43:59;;;;;;;;;;;21.10;90.80;;;;;;4988967;28;20024;-78
2022/08/03 09:46:30;;;;;;;;;;;21.10;90.80;;;;;;4985013;28;19976;-79
2022/08/03 09:49:10;;;;;;;;;;;21.10;90.80;;;;;;4989877;28;19925;-78
2022/08/03 09:51:37;;;;;;;;;;;21.10;90.70;;;;;;4969428;28;19926;-78
2022/08/03 09:54:04;;;;;;;;;;;21.20;90.80;;;;;;4988441;28;20572;-78
2022/08/03 09:56:38;;;;;;;;;;;21.10;90.70;;;;;;4979450;28;19958;-79
2022/08/03 09:59:07;;;;;;;;;;;21.20;90.80;;;;;;4989881;28;20087;-78
2022/08/03 10:01:36;;;;;;;;;;;21.20;90.80;;;;;;4987023;28;19926;-79
2022/08/03 10:04:03;;;;;;;;;;;21.20;90.80;;;;;;4971421;28;19979;-82
2022/08/03 10:06:30;;;;;;;;;;;21.20;90.70;;;;;;4986901;28;19973;-80
2022/08/03 10:09:05;;;;;;;;;;;21.30;90.80;;;;;;4986215;28;19926;-78
2022/08/03 10:11:33;;;;;;;;;;;21.30;90.70;;;;;;4978706;28;19925;-81
2022/08/03 10:14:02;;;;;;;;;;;21.30;90.70;;;;;;4988071;28;19996;-79
2022/08/03 10:16:33;;;;;;;;;;;21.30;90.60;;;;;;4981590;28;19933;-80
2022/08/03 10:18:59;;;;;;;;;;;21.30;90.50;;;;;;4985318;28;19929;-78
2022/08/03 10:21:29;;;;;;;;;;;21.30;90.50;;;;;;4986767;28;20013;-78
2022/08/03 10:23:57;;;;;;;;;;;21.30;90.50;;;;;;4986087;28;20430;-78
2022/08/03 10:26:25;;;;;;;;;;;21.30;90.50;;;;;;4987115;28;19973;-80
2022/08/03 10:28:53;;;;;;;;;;;21.40;90.60;;;;;;4984545;28;19980;-79
2022/08/03 10:31:22;;;;;;;;;;;21.40;90.60;;;;;;4982486;28;19940;-79
2022/08/03 10:33:51;;;;;;;;;;;21.40;90.60;;;;;;4986479;28;19938;-79
2022/08/03 10:36:18;;;;;;;;;;;21.40;90.60;;;;;;4984825;28;20361;-79
2022/08/03 10:38:51;;;;;;;;;;;21.40;90.60;;;;;;4988501;28;20168;-78
2022/08/03 10:41:19;;;;;;;;;;;21.40;90.60;;;;;;4990880;28;19925;-79
2022/08/03 10:43:50;;;;;;;;;;;21.40;90.60;;;;;;4984994;28;19925;-79
2022/08/03 10:46:19;;;;;;;;;;;21.50;90.60;;;;;;4982424;28;20452;-80
2022/08/03 10:48:46;;;;;;;;;;;21.50;90.70;;;;;;4987511;28;19930;-78
2022/08/03 10:51:14;;;;;;;;;;;21.50;90.70;;;;;;4988029;28;19980;-80
2022/08/03 10:53:42;;;;;;;;;;;21.60;90.70;;;;;;4988197;28;19925;-79
2022/08/03 10:59:09;;;;;;;;;;;21.60;90.70;;;;;;4981663;28;19972;-81
2022/08/03 11:01:49;;;;;;;;;;;21.60;91.00;;;;;;4989521;28;20336;-82
2022/08/03 11:04:18;;;;;;;;;;;21.60;90.60;;;;;;4986707;28;19934;-83
2022/08/03 11:06:47;;;;;;;;;;;21.70;90.50;;;;;;4968275;28;19936;-84
2022/08/03 11:09:15;;;;;;;;;;;21.70;90.40;;;;;;4992224;28;20236;-78
2022/08/03 11:11:42;;;;;;;;;;;21.70;90.30;;;;;;4996778;28;19929;-81
2022/08/03 11:14:10;;;;;;;;;;;21.70;90.40;;;;;;4985882;28;19926;-79
2022/08/03 11:16:39;;;;;;;;;;;21.70;90.40;;;;;;4982148;28;19938;-79
2022/08/03 11:19:06;;;;;;;;;;;21.70;90.30;;;;;;4992225;28;19964;-78
2022/08/03 11:21:52;;;;;;;;;;;21.80;90.30;;;;;;4985416;28;19981;-81
2022/08/03 11:24:34;;;;;;;;;;;21.80;90.20;;;;;;4984688;28;19980;-83
2022/08/03 11:27:17;;;;;;;;;;;21.80;90.00;;;;;;4988756;28;19936;-78
2022/08/03 11:29:54;;;;;;;;;;;21.80;90.00;;;;;;4987152;28;19980;-79
2022/08/03 11:32:35;;;;;;;;;;;21.80;90.10;;;;;;4983036;28;20459;-79
2022/08/03 11:35:09;;;;;;;;;;;21.90;90.00;;;;;;4987013;28;19934;-79
2022/08/03 11:37:36;;;;;;;;;;;21.90;89.80;;;;;;4991431;28;19984;-78
2022/08/03 11:40:03;;;;;;;;;;;21.90;89.70;;;;;;4982599;28;19934;-79
2022/08/03 11:42:43;;;;;;;;;;;21.90;89.40;;;;;;4987044;28;19933;-78
2022/08/03 11:45:10;;;;;;;;;;;21.90;89.50;;;;;;4987390;28;19930;-78
2022/08/03 11:47:39;;;;;;;;;;;22.00;89.80;;;;;;4989257;28;19926;-80
2022/08/03 11:50:06;;;;;;;;;;;22.00;89.90;;;;;;4988523;28;19936;-79
2022/08/03 11:52:37;;;;;;;;;;;22.00;90.00;;;;;;4985951;28;20024;-78
2022/08/03 11:55:09;;;;;;;;;;;22.00;90.00;;;;;;4985245;28;19976;-80
2022/08/03 11:57:35;;;;;;;;;;;22.10;90.00;;;;;;4987037;28;20095;-80
2022/08/03 12:00:19;;;;;;;;;;;22.10;89.40;;;;;;4989469;28;20335;-78
2022/08/03 12:02:53;;;;;;;;;;;22.20;88.90;;;;;;4963330;28;19929;-80
2022/08/03 12:05:20;;;;;;;;;;;22.20;89.40;;;;;;4988075;28;19968;-78
2022/08/03 12:07:47;;;;;;;;;;;22.20;89.40;;;;;;4986063;28;20320;-82
2022/08/03 12:10:14;;;;;;;;;;;22.20;88.90;;;;;;4988719;28;19960;-79
2022/08/03 12:12:41;;;;;;;;;;;22.30;89.10;;;;;;4980021;28;19940;-78
2022/08/03 12:15:10;;;;;;;;;;;22.30;89.90;;;;;;4988093;28;20412;-80
2022/08/03 12:17:38;;;;;;;;;;;22.30;89.50;;;;;;4974524;28;20296;-82
2022/08/03 12:20:06;;;;;;;;;;;22.40;89.60;;;;;;4979175;28;19930;-79
2022/08/03 12:22:33;;;;;;;;;;;22.40;89.20;;;;;;4985290;28;20356;-79
2022/08/03 12:25:01;;;;;;;;;;;22.40;89.20;;;;;;4986244;28;19926;-81
2022/08/03 12:27:28;;;;;;;;;;;22.40;88.60;;;;;;4989316;28;20257;-78
2022/08/03 12:29:56;;;;;;;;;;;22.50;88.60;;;;;;4970792;28;19926;-79
2022/08/03 12:32:25;;;;;;;;;;;22.50;88.40;;;;;;4982232;28;20300;-81
2022/08/03 12:34:52;;;;;;;;;;;22.50;88.50;;;;;;4977900;28;20021;-81
2022/08/03 12:37:20;;;;;;;;;;;22.80;84.30;;;;;;4974523;28;19934;-79
2022/08/03 12:39:49;;;;;;;;;;;23.00;83.60;;;;;;4979867;28;20344;-80
2022/08/03 12:42:16;;;;;;;;;;;23.00;84.40;;;;;;4981202;28;19999;-80
2022/08/03 12:44:44;;;;;;;;;;;23.00;85.00;;;;;;4982069;28;19953;-81
2022/08/03 12:47:11;;;;;;;;;;;23.00;85.60;;;;;;4983689;28;19996;-79
2022/08/03 12:49:46;;;;;;;;;;;23.10;85.90;;;;;;4971616;28;19929;-80
2022/08/03 12:52:13;;;;;;;;;;;23.10;85.70;;;;;;4981194;28;20008;-81
2022/08/03 12:54:40;;;;;;;;;;;23.10;86.10;;;;;;4966430;28;19972;-78
2022/08/03 12:57:07;;;;;;;;;;;23.20;86.10;;;;;;4975579;28;19934;-78
2022/08/03 12:59:35;;;;;;;;;;;23.20;87.10;;;;;;4981205;28;20001;-78
2022/08/03 13:02:02;;;;;;;;;;;23.20;86.80;;;;;;4977520;28;20012;-80
2022/08/03 13:04:29;;;;;;;;;;;23.20;87.10;;;;;;4984539;28;19926;-78
2022/08/03 13:06:58;;;;;;;;;;;23.30;87.10;;;;;;4970459;28;19926;-77
2022/08/03 13:09:26;;;;;;;;;;;23.40;87.30;;;;;;4986894;28;19973;-78
2022/08/03 13:12:05;;;;;;;;;;;23.40;86.80;;;;;;4979564;28;19930;-80
2022/08/03 13:14:32;;;;;;;;;;;23.50;87.30;;;;;;4986462;28;19926;-78
2022/08/03 13:16:59;;;;;;;;;;;23.50;87.50;;;;;;4987866;28;19934;-78
2022/08/03 13:19:26;;;;;;;;;;;23.60;87.50;;;;;;4980083;28;19929;-79
2022/08/03 13:21:53;;;;;;;;;;;23.60;86.90;;;;;;4966896;28;19936;-79
2022/08/03 13:24:21;;;;;;;;;;;23.70;87.30;;;;;;4974885;28;19933;-82
2022/08/03 13:26:48;;;;;;;;;;;23.80;87.00;;;;;;4976002;28;19930;-80
2022/08/03 13:29:15;;;;;;;;;;;23.80;87.00;;;;;;4971870;28;19977;-80
2022/08/03 13:31:43;;;;;;;;;;;23.90;87.40;;;;;;4974554;28;20473;-82
2022/08/03 13:34:11;;;;;;;;;;;23.90;88.00;;;;;;4984538;28;19933;-79
2022/08/03 13:36:38;;;;;;;;;;;24.00;87.80;;;;;;4984593;28;20194;-80
2022/08/03 13:39:04;;;;;;;;;;;24.10;87.30;;;;;;4975169;28;20355;-82
2022/08/03 13:41:33;;;;;;;;;;;24.10;87.30;;;;;;4975401;28;19932;-80
2022/08/03 13:43:59;;;;;;;;;;;24.20;87.00;;;;;;4974116;28;20440;-78
2022/08/03 13:46:26;;;;;;;;;;;24.30;86.90;;;;;;4982792;28;19969;-80
2022/08/03 13:48:53;;;;;;;;;;;24.40;86.90;;;;;;4973307;28;19934;-80
2022/08/03 13:51:20;;;;;;;;;;;24.40;87.00;;;;;;4974158;28;19972;-78
2022/08/03 13:53:47;;;;;;;;;;;24.50;84.90;;;;;;4978260;28;20025;-78
2022/08/03 13:56:13;;;;;;;;;;;24.50;85.40;;;;;;4973159;28;19969;-79
2022/08/03 13:58:42;;;;;;;;;;;24.60;85.20;;;;;;4976676;28;19988;-79
2022/08/03 14:01:08;;;;;;;;;;;24.60;84.90;;;;;;4972035;28;19930;-82
2022/08/03 14:03:35;;;;;;;;;;;24.70;84.80;;;;;;4960418;28;20380;-81
2022/08/03 14:06:02;;;;;;;;;;;24.70;85.20;;;;;;4976845;28;20331;-79
2022/08/03 14:08:29;;;;;;;;;;;24.80;85.10;;;;;;4978713;28;20421;-78
2022/08/03 14:10:56;;;;;;;;;;;24.90;84.10;;;;;;4972811;28;20355;-79
2022/08/03 14:13:23;;;;;;;;;;;25.00;84.40;;;;;;4973576;28;19930;-80
2022/08/03 14:15:52;;;;;;;;;;;25.00;85.20;;;;;;4982634;28;20325;-80
2022/08/03 14:18:19;;;;;;;;;;;25.00;84.60;;;;;;4973393;28;19929;-79
2022/08/03 14:20:46;;;;;;;;;;;25.10;84.90;;;;;;4977560;28;20105;-78
2022/08/03 14:23:13;;;;;;;;;;;25.20;84.40;;;;;;4978140;28;19933;-80
2022/08/03 14:25:40;;;;;;;;;;;;;;;;;;4988543;28;20012;-80
2022/08/03 14:28:07;;;;;;;;;;;25.30;84.50;;;;;;4983595;28;20424;-81
2022/08/03 14:30:34;;;;;;;;;;;25.30;85.20;;;;;;4984080;28;19914;-80
2022/08/03 14:33:02;;;;;;;;;;;25.40;85.70;;;;;;4957386;28;19937;-79
2022/08/03 14:35:29;;;;;;;;;;;25.40;86.30;;;;;;4980035;28;19973;-81